sensor_id;sensor_type;location;lat;lon;timestamp;temperature;humidity
13998;DHT22;7074;51.508;7.018;2023-07-20T00:02:08;20.70;99.90
13998;DHT22;7074;51.508;7.018;2023-07-20T00:04:36;20.70;99.90
13998;DHT22;7074;51.508;7.018;2023-07-20T00:07:04;20.70;99.90
13998;DHT22;7074;51.508;7.018;2023-07-20T00:09:31;20.70;99.90
13998;DHT22;7074;51.508;7.018;2023-07-20T00:11:59;20.70;99.90
13998;DHT22;7074;51.508;7.018;2023-07-20T00:14:26;20.70;99.90
13998;DHT22;7074;51.508;7.018;2023-07-20T00:16:55;20.70;99.90
13998;DHT22;7074;51.508;7.018;2023-07-20T00:19:23;20.70;99.90
13998;DHT22;7074;51.508;7.018;2023-07-20T00:21:52;20.70;99.90
13998;DHT22;7074;51.508;7.018;2023-07-20T00:24:20;20.70;99.90
13998;DHT22;7074;51.508;7.018;2023-07-20T00:26:47;20.70;99.90
13998;DHT22;7074;51.508;7.018;2023-07-20T00:29:15;20.60;99.90
13998;DHT22;7074;51.508;7.018;2023-07-20T00:31:42;20.70;99.90
13998;DHT22;7074;51.508;7.018;2023-07-20T00:34:09;20.70;99.90
13998;DHT22;7074;51.508;7.018;2023-07-20T00:36:37;20.70;99.90
13998;DHT22;7074;51.508;7.018;2023-07-20T00:39:06;20.80;99.90
13998;DHT22;7074;51.508;7.018;2023-07-20T00:41:34;20.80;99.90
13998;DHT22;7074;51.508;7.018;2023-07-20T00:44:02;20.70;99.90
13998;DHT22;7074;51.508;7.018;2023-07-20T00:46:30;20.70;99.90
13998;DHT22;7074;51.508;7.018;2023-07-20T00:49:00;20.70;99.90
13998;DHT22;7074;51.508;7.018;2023-07-20T00:51:28;20.70;99.90
13998;DHT22;7074;51.508;7.018;2023-07-20T00:53:55;20.70;99.90
13998;DHT22;7074;51.508;7.018;2023-07-20T00:56:24;20.60;99.90
13998;DHT22;7074;51.508;7.018;2023-07-20T00:58:52;20.70;99.90
13998;DHT22;7074;51.508;7.018;2023-07-20T01:01:21;20.60;99.90
13998;DHT22;7074;51.508;7.018;2023-07-20T01:03:48;20.70;99.90
13998;DHT22;7074;51.508;7.018;2023-07-20T01:06:24;20.70;99.90
13998;DHT22;7074;51.508;7.018;2023-07-20T01:09:00;20.60;99.90
13998;DHT22;7074;51.508;7.018;2023-07-20T01:11:37;20.60;99.90
13998;DHT22;7074;51.508;7.018;2023-07-20T01:14:05;20.60;99.90
13998;DHT22;7074;51.508;7.018;2023-07-20T01:16:33;20.50;99.90
13998;DHT22;7074;51.508;7.018;2023-07-20T01:19:00;20.60;99.90
13998;DHT22;7074;51.508;7.018;2023-07-20T01:21:33;20.50;99.90
13998;DHT22;7074;51.508;7.018;2023-07-20T01:24:39;20.60;99.90
13998;DHT22;7074;51.508;7.018;2023-07-20T01:27:54;20.50;99.90
13998;DHT22;7074;51.508;7.018;2023-07-20T01:30:41;20.50;99.90
13998;DHT22;7074;51.508;7.018;2023-07-20T01:33:15;20.40;99.90
13998;DHT22;7074;51.508;7.018;2023-07-20T01:35:43;20.30;99.90
13998;DHT22;7074;51.508;7.018;2023-07-20T01:38:14;20.30;99.90
13998;DHT22;7074;51.508;7.018;2023-07-20T01:40:41;20.30;99.90
13998;DHT22;7074;51.508;7.018;2023-07-20T01:43:09;20.30;99.90
13998;DHT22;7074;51.508;7.018;2023-07-20T01:45:36;20.40;99.90
13998;DHT22;7074;51.508;7.018;2023-07-20T01:48:04;20.40;99.90
13998;DHT22;7074;51.508;7.018;2023-07-20T01:50:32;20.40;99.90
13998;DHT22;7074;51.508;7.018;2023-07-20T01:53:00;20.30;99.90
13998;DHT22;7074;51.508;7.018;2023-07-20T01:55:27;20.30;99.90
13998;DHT22;7074;51.508;7.018;2023-07-20T01:57:55;20.30;99.90
13998;DHT22;7074;51.508;7.018;2023-07-20T02:00:22;20.30;99.90
13998;DHT22;7074;51.508;7.018;2023-07-20T02:02:51;20.30;99.90
13998;DHT22;7074;51.508;7.018;2023-07-20T02:05:18;20.30;99.90
13998;DHT22;7074;51.508;7.018;2023-07-20T02:07:49;20.20;99.90
13998;DHT22;7074;51.508;7.018;2023-07-20T02:10:19;20.20;99.90
13998;DHT22;7074;51.508;7.018;2023-07-20T02:12:46;20.10;99.90
13998;DHT22;7074;51.508;7.018;2023-07-20T02:15:14;20.00;99.90
13998;DHT22;7074;51.508;7.018;2023-07-20T02:17:42;19.90;99.90
13998;DHT22;7074;51.508;7.018;2023-07-20T02:20:10;19.70;99.90
13998;DHT22;7074;51.508;7.018;2023-07-20T02:22:38;19.60;99.90
13998;DHT22;7074;51.508;7.018;2023-07-20T02:25:07;19.60;99.90
13998;DHT22;7074;51.508;7.018;2023-07-20T02:27:35;19.60;99.90
13998;DHT22;7074;51.508;7.018;2023-07-20T02:30:03;19.60;99.90
13998;DHT22;7074;51.508;7.018;2023-07-20T02:32:31;19.50;99.90
13998;DHT22;7074;51.508;7.018;2023-07-20T02:34:58;19.50;99.90
13998;DHT22;7074;51.508;7.018;2023-07-20T02:37:26;19.50;99.90
13998;DHT22;7074;51.508;7.018;2023-07-20T02:39:53;19.50;99.90
13998;DHT22;7074;51.508;7.018;2023-07-20T02:42:22;19.50;99.90
13998;DHT22;7074;51.508;7.018;2023-07-20T02:44:51;19.50;99.90
13998;DHT22;7074;51.508;7.018;2023-07-20T02:47:18;19.50;99.90
13998;DHT22;7074;51.508;7.018;2023-07-20T02:49:46;19.50;99.90
13998;DHT22;7074;51.508;7.018;2023-07-20T02:52:13;19.50;99.90
13998;DHT22;7074;51.508;7.018;2023-07-20T02:54:40;19.50;99.90
13998;DHT22;7074;51.508;7.018;2023-07-20T02:57:08;19.40;99.90
13998;DHT22;7074;51.508;7.018;2023-07-20T02:59:36;19.40;99.90
13998;DHT22;7074;51.508;7.018;2023-07-20T03:02:04;19.30;99.90
13998;DHT22;7074;51.508;7.018;2023-07-20T03:04:31;19.40;99.90
13998;DHT22;7074;51.508;7.018;2023-07-20T03:06:58;19.30;99.90
13998;DHT22;7074;51.508;7.018;2023-07-20T03:09:26;19.30;99.90
13998;DHT22;7074;51.508;7.018;2023-07-20T03:11:53;19.30;99.90
13998;DHT22;7074;51.508;7.018;2023-07-20T03:14:20;19.20;99.90
13998;DHT22;7074;51.508;7.018;2023-07-20T03:16:50;19.20;99.90
13998;DHT22;7074;51.508;7.018;2023-07-20T03:19:18;19.20;99.90
13998;DHT22;7074;51.508;7.018;2023-07-20T03:21:45;19.20;99.90
13998;DHT22;7074;51.508;7.018;2023-07-20T03:24:12;19.20;99.90
13998;DHT22;7074;51.508;7.018;2023-07-20T03:26:39;19.20;99.90
13998;DHT22;7074;51.508;7.018;2023-07-20T03:29:07;19.10;99.90
13998;DHT22;7074;51.508;7.018;2023-07-20T03:31:34;19.10;99.90
13998;DHT22;7074;51.508;7.018;2023-07-20T03:34:02;19.10;99.90
13998;DHT22;7074;51.508;7.018;2023-07-20T03:36:29;19.10;99.90
13998;DHT22;7074;51.508;7.018;2023-07-20T03:38:57;19.00;99.90
13998;DHT22;7074;51.508;7.018;2023-07-20T03:41:24;19.10;99.90
13998;DHT22;7074;51.508;7.018;2023-07-20T03:43:52;19.00;99.90
13998;DHT22;7074;51.508;7.018;2023-07-20T03:46:19;19.10;99.90
13998;DHT22;7074;51.508;7.018;2023-07-20T03:48:46;19.10;99.90
13998;DHT22;7074;51.508;7.018;2023-07-20T03:51:15;19.10;99.90
13998;DHT22;7074;51.508;7.018;2023-07-20T03:53:42;19.10;99.90
13998;DHT22;7074;51.508;7.018;2023-07-20T03:56:09;19.20;99.90
13998;DHT22;7074;51.508;7.018;2023-07-20T03:58:36;19.20;99.90
13998;DHT22;7074;51.508;7.018;2023-07-20T04:01:03;19.20;99.90
13998;DHT22;7074;51.508;7.018;2023-07-20T04:03:31;19.20;99.90
13998;DHT22;7074;51.508;7.018;2023-07-20T04:05:58;19.20;99.90
13998;DHT22;7074;51.508;7.018;2023-07-20T04:08:27;19.00;99.90
13998;DHT22;7074;51.508;7.018;2023-07-20T04:10:54;19.00;99.90
13998;DHT22;7074;51.508;7.018;2023-07-20T04:13:22;19.00;99.90
13998;DHT22;7074;51.508;7.018;2023-07-20T04:15:49;19.00;99.90
13998;DHT22;7074;51.508;7.018;2023-07-20T04:18:16;19.00;99.90
13998;DHT22;7074;51.508;7.018;2023-07-20T04:20:43;19.00;99.90
13998;DHT22;7074;51.508;7.018;2023-07-20T04:23:11;19.00;99.90
13998;DHT22;7074;51.508;7.018;2023-07-20T04:25:40;19.10;99.90
13998;DHT22;7074;51.508;7.018;2023-07-20T04:28:11;19.10;99.90
13998;DHT22;7074;51.508;7.018;2023-07-20T04:30:43;19.10;99.90
13998;DHT22;7074;51.508;7.018;2023-07-20T04:33:10;19.10;99.90
13998;DHT22;7074;51.508;7.018;2023-07-20T04:35:49;19.10;99.90
13998;DHT22;7074;51.508;7.018;2023-07-20T04:38:20;19.20;99.90
13998;DHT22;7074;51.508;7.018;2023-07-20T04:40:56;19.10;99.90
13998;DHT22;7074;51.508;7.018;2023-07-20T04:43:23;19.20;99.90
13998;DHT22;7074;51.508;7.018;2023-07-20T04:45:51;19.20;99.90
13998;DHT22;7074;51.508;7.018;2023-07-20T04:48:19;19.20;99.90
13998;DHT22;7074;51.508;7.018;2023-07-20T04:50:52;19.20;99.90
13998;DHT22;7074;51.508;7.018;2023-07-20T04:53:19;19.30;99.90
13998;DHT22;7074;51.508;7.018;2023-07-20T04:55:49;19.30;99.90
13998;DHT22;7074;51.508;7.018;2023-07-20T04:58:21;19.30;99.90
13998;DHT22;7074;51.508;7.018;2023-07-20T05:00:50;19.30;99.90
13998;DHT22;7074;51.508;7.018;2023-07-20T05:03:17;19.30;99.90
13998;DHT22;7074;51.508;7.018;2023-07-20T05:05:46;19.30;99.90
13998;DHT22;7074;51.508;7.018;2023-07-20T05:08:14;19.30;99.90
13998;DHT22;7074;51.508;7.018;2023-07-20T05:10:42;19.30;99.90
13998;DHT22;7074;51.508;7.018;2023-07-20T05:13:09;19.30;99.90
13998;DHT22;7074;51.508;7.018;2023-07-20T05:15:38;19.10;99.90
13998;DHT22;7074;51.508;7.018;2023-07-20T05:18:10;19.20;99.90
13998;DHT22;7074;51.508;7.018;2023-07-20T05:20:37;19.20;99.90
13998;DHT22;7074;51.508;7.018;2023-07-20T05:23:05;19.20;99.90
13998;DHT22;7074;51.508;7.018;2023-07-20T05:25:32;19.10;99.90
13998;DHT22;7074;51.508;7.018;2023-07-20T05:28:00;19.00;99.90
13998;DHT22;7074;51.508;7.018;2023-07-20T05:30:27;19.00;99.90
13998;DHT22;7074;51.508;7.018;2023-07-20T05:32:56;18.90;99.90
13998;DHT22;7074;51.508;7.018;2023-07-20T05:35:25;19.00;99.90
13998;DHT22;7074;51.508;7.018;2023-07-20T05:37:52;19.00;99.90
13998;DHT22;7074;51.508;7.018;2023-07-20T05:40:19;19.10;99.90
13998;DHT22;7074;51.508;7.018;2023-07-20T05:42:48;19.10;99.90
13998;DHT22;7074;51.508;7.018;2023-07-20T05:45:18;19.10;99.90
13998;DHT22;7074;51.508;7.018;2023-07-20T05:47:46;19.10;99.90
13998;DHT22;7074;51.508;7.018;2023-07-20T05:50:17;19.10;99.90
13998;DHT22;7074;51.508;7.018;2023-07-20T05:52:44;19.10;99.90
13998;DHT22;7074;51.508;7.018;2023-07-20T05:55:11;19.10;99.90
13998;DHT22;7074;51.508;7.018;2023-07-20T05:57:38;19.20;99.90
13998;DHT22;7074;51.508;7.018;2023-07-20T06:00:08;19.20;99.90
13998;DHT22;7074;51.508;7.018;2023-07-20T06:02:38;19.20;99.90
13998;DHT22;7074;51.508;7.018;2023-07-20T06:05:07;19.10;99.90
13998;DHT22;7074;51.508;7.018;2023-07-20T06:07:37;19.00;99.90
13998;DHT22;7074;51.508;7.018;2023-07-20T06:10:06;19.10;99.90
13998;DHT22;7074;51.508;7.018;2023-07-20T06:12:33;19.10;99.90
13998;DHT22;7074;51.508;7.018;2023-07-20T06:15:02;19.10;99.90
13998;DHT22;7074;51.508;7.018;2023-07-20T06:17:30;19.00;99.90
13998;DHT22;7074;51.508;7.018;2023-07-20T06:19:57;19.00;99.90
13998;DHT22;7074;51.508;7.018;2023-07-20T06:22:25;19.00;99.90
13998;DHT22;7074;51.508;7.018;2023-07-20T06:24:54;18.90;99.90
13998;DHT22;7074;51.508;7.018;2023-07-20T06:27:21;18.90;99.90
13998;DHT22;7074;51.508;7.018;2023-07-20T06:29:48;19.00;99.90
13998;DHT22;7074;51.508;7.018;2023-07-20T06:32:16;19.00;99.90
13998;DHT22;7074;51.508;7.018;2023-07-20T06:34:43;19.10;99.90
13998;DHT22;7074;51.508;7.018;2023-07-20T06:37:10;19.30;99.90
13998;DHT22;7074;51.508;7.018;2023-07-20T06:39:38;19.60;99.90
13998;DHT22;7074;51.508;7.018;2023-07-20T06:42:07;19.60;99.90
13998;DHT22;7074;51.508;7.018;2023-07-20T06:44:34;19.90;99.90
13998;DHT22;7074;51.508;7.018;2023-07-20T06:47:02;19.90;99.90
13998;DHT22;7074;51.508;7.018;2023-07-20T06:49:29;20.00;99.90
13998;DHT22;7074;51.508;7.018;2023-07-20T06:51:57;20.00;99.90
13998;DHT22;7074;51.508;7.018;2023-07-20T06:54:24;20.20;99.90
13998;DHT22;7074;51.508;7.018;2023-07-20T06:56:52;20.30;99.90
13998;DHT22;7074;51.508;7.018;2023-07-20T06:59:21;20.40;99.90
13998;DHT22;7074;51.508;7.018;2023-07-20T07:01:50;20.40;99.90
13998;DHT22;7074;51.508;7.018;2023-07-20T07:04:17;20.70;99.90
13998;DHT22;7074;51.508;7.018;2023-07-20T07:06:44;20.80;99.90
13998;DHT22;7074;51.508;7.018;2023-07-20T07:09:11;20.80;99.90
13998;DHT22;7074;51.508;7.018;2023-07-20T07:11:39;20.70;99.90
13998;DHT22;7074;51.508;7.018;2023-07-20T07:14:06;20.70;99.90
13998;DHT22;7074;51.508;7.018;2023-07-20T07:16:35;20.70;99.90
13998;DHT22;7074;51.508;7.018;2023-07-20T07:19:02;20.50;99.90
13998;DHT22;7074;51.508;7.018;2023-07-20T07:21:31;20.30;99.90
13998;DHT22;7074;51.508;7.018;2023-07-20T07:23:58;20.30;99.90
13998;DHT22;7074;51.508;7.018;2023-07-20T07:26:26;20.30;99.90
13998;DHT22;7074;51.508;7.018;2023-07-20T07:28:53;20.30;99.90
13998;DHT22;7074;51.508;7.018;2023-07-20T07:31:20;20.30;99.90
13998;DHT22;7074;51.508;7.018;2023-07-20T07:33:50;20.20;99.90
13998;DHT22;7074;51.508;7.018;2023-07-20T07:36:17;20.20;99.90
13998;DHT22;7074;51.508;7.018;2023-07-20T07:38:45;20.20;99.90
13998;DHT22;7074;51.508;7.018;2023-07-20T07:41:13;20.20;99.90
13998;DHT22;7074;51.508;7.018;2023-07-20T07:43:42;20.20;99.90
13998;DHT22;7074;51.508;7.018;2023-07-20T07:46:09;20.20;99.90
13998;DHT22;7074;51.508;7.018;2023-07-20T07:48:37;20.20;99.90
13998;DHT22;7074;51.508;7.018;2023-07-20T07:51:05;20.20;99.90
13998;DHT22;7074;51.508;7.018;2023-07-20T07:53:32;20.40;99.90
13998;DHT22;7074;51.508;7.018;2023-07-20T07:56:01;20.60;99.90
13998;DHT22;7074;51.508;7.018;2023-07-20T07:58:28;20.30;99.90
13998;DHT22;7074;51.508;7.018;2023-07-20T08:00:57;20.30;99.90
13998;DHT22;7074;51.508;7.018;2023-07-20T08:03:24;20.30;99.90
13998;DHT22;7074;51.508;7.018;2023-07-20T08:05:54;20.30;99.90
13998;DHT22;7074;51.508;7.018;2023-07-20T08:08:23;20.30;99.90
13998;DHT22;7074;51.508;7.018;2023-07-20T08:10:53;20.30;99.90
13998;DHT22;7074;51.508;7.018;2023-07-20T08:13:20;20.60;99.90
13998;DHT22;7074;51.508;7.018;2023-07-20T08:15:50;20.70;99.90
13998;DHT22;7074;51.508;7.018;2023-07-20T08:18:17;20.90;99.90
13998;DHT22;7074;51.508;7.018;2023-07-20T08:20:45;21.00;99.90
13998;DHT22;7074;51.508;7.018;2023-07-20T08:23:13;21.10;99.90
13998;DHT22;7074;51.508;7.018;2023-07-20T08:25:42;21.30;99.90
13998;DHT22;7074;51.508;7.018;2023-07-20T08:28:10;21.30;99.90
13998;DHT22;7074;51.508;7.018;2023-07-20T08:30:41;21.40;99.90
13998;DHT22;7074;51.508;7.018;2023-07-20T08:33:09;21.50;99.90
13998;DHT22;7074;51.508;7.018;2023-07-20T08:35:37;21.10;99.90
13998;DHT22;7074;51.508;7.018;2023-07-20T08:38:04;21.30;99.90
13998;DHT22;7074;51.508;7.018;2023-07-20T08:40:32;21.20;99.90
13998;DHT22;7074;51.508;7.018;2023-07-20T08:43:00;21.50;99.90
13998;DHT22;7074;51.508;7.018;2023-07-20T08:45:28;21.70;99.90
13998;DHT22;7074;51.508;7.018;2023-07-20T08:47:57;21.80;99.90
13998;DHT22;7074;51.508;7.018;2023-07-20T08:50:26;22.00;99.90
13998;DHT22;7074;51.508;7.018;2023-07-20T08:52:57;22.30;99.90
13998;DHT22;7074;51.508;7.018;2023-07-20T08:55:25;22.40;99.90
13998;DHT22;7074;51.508;7.018;2023-07-20T08:57:54;22.50;99.90
13998;DHT22;7074;51.508;7.018;2023-07-20T09:00:24;22.40;99.90
13998;DHT22;7074;51.508;7.018;2023-07-20T09:02:52;22.40;99.90
13998;DHT22;7074;51.508;7.018;2023-07-20T09:05:20;22.10;99.90
13998;DHT22;7074;51.508;7.018;2023-07-20T09:07:48;22.30;99.90
13998;DHT22;7074;51.508;7.018;2023-07-20T09:10:15;22.40;99.90
13998;DHT22;7074;51.508;7.018;2023-07-20T09:12:43;22.60;99.90
13998;DHT22;7074;51.508;7.018;2023-07-20T09:15:11;22.80;99.90
13998;DHT22;7074;51.508;7.018;2023-07-20T09:17:46;22.90;99.90
13998;DHT22;7074;51.508;7.018;2023-07-20T09:20:16;23.10;99.90
13998;DHT22;7074;51.508;7.018;2023-07-20T09:22:44;22.50;99.70
13998;DHT22;7074;51.508;7.018;2023-07-20T09:25:13;22.70;99.90
13998;DHT22;7074;51.508;7.018;2023-07-20T09:27:42;23.00;99.90
13998;DHT22;7074;51.508;7.018;2023-07-20T09:30:10;23.10;99.90
13998;DHT22;7074;51.508;7.018;2023-07-20T09:32:45;23.40;99.70
13998;DHT22;7074;51.508;7.018;2023-07-20T09:35:13;23.20;98.10
13998;DHT22;7074;51.508;7.018;2023-07-20T09:37:46;22.80;98.40
13998;DHT22;7074;51.508;7.018;2023-07-20T09:40:15;23.00;97.90
13998;DHT22;7074;51.508;7.018;2023-07-20T09:42:45;22.90;97.60
13998;DHT22;7074;51.508;7.018;2023-07-20T09:45:13;23.20;97.80
13998;DHT22;7074;51.508;7.018;2023-07-20T09:47:41;23.40;97.50
13998;DHT22;7074;51.508;7.018;2023-07-20T09:50:09;23.60;97.20
13998;DHT22;7074;51.508;7.018;2023-07-20T09:52:38;23.40;95.70
13998;DHT22;7074;51.508;7.018;2023-07-20T09:55:10;23.40;96.50
13998;DHT22;7074;51.508;7.018;2023-07-20T09:57:39;23.60;96.60
13998;DHT22;7074;51.508;7.018;2023-07-20T10:00:07;23.60;97.10
13998;DHT22;7074;51.508;7.018;2023-07-20T10:02:43;23.20;97.10
13998;DHT22;7074;51.508;7.018;2023-07-20T10:05:12;22.70;99.40
13998;DHT22;7074;51.508;7.018;2023-07-20T10:07:44;22.90;99.90
13998;DHT22;7074;51.508;7.018;2023-07-20T10:10:15;23.10;99.30
13998;DHT22;7074;51.508;7.018;2023-07-20T10:12:46;23.00;98.90
13998;DHT22;7074;51.508;7.018;2023-07-20T10:15:18;23.30;98.70
13998;DHT22;7074;51.508;7.018;2023-07-20T10:17:56;23.50;98.20
13998;DHT22;7074;51.508;7.018;2023-07-20T10:20:25;23.70;96.60
13998;DHT22;7074;51.508;7.018;2023-07-20T10:22:54;23.20;96.80
13998;DHT22;7074;51.508;7.018;2023-07-20T10:25:23;23.30;96.00
13998;DHT22;7074;51.508;7.018;2023-07-20T10:27:51;23.40;96.00
13998;DHT22;7074;51.508;7.018;2023-07-20T10:30:18;23.80;95.50
13998;DHT22;7074;51.508;7.018;2023-07-20T10:32:48;23.70;94.70
13998;DHT22;7074;51.508;7.018;2023-07-20T10:35:17;23.80;95.70
13998;DHT22;7074;51.508;7.018;2023-07-20T10:37:52;23.90;96.50
13998;DHT22;7074;51.508;7.018;2023-07-20T10:40:31;24.00;94.90
13998;DHT22;7074;51.508;7.018;2023-07-20T10:42:59;24.00;93.30
13998;DHT22;7074;51.508;7.018;2023-07-20T10:45:49;24.20;93.80
13998;DHT22;7074;51.508;7.018;2023-07-20T10:48:19;24.20;93.20
13998;DHT22;7074;51.508;7.018;2023-07-20T10:51:10;24.20;92.00
13998;DHT22;7074;51.508;7.018;2023-07-20T10:53:38;24.00;92.30
13998;DHT22;7074;51.508;7.018;2023-07-20T10:56:09;23.50;93.20
13998;DHT22;7074;51.508;7.018;2023-07-20T10:58:38;23.90;93.30
13998;DHT22;7074;51.508;7.018;2023-07-20T11:01:06;24.20;91.40
13998;DHT22;7074;51.508;7.018;2023-07-20T11:03:36;24.50;92.30
13998;DHT22;7074;51.508;7.018;2023-07-20T11:06:30;24.60;92.70
13998;DHT22;7074;51.508;7.018;2023-07-20T11:09:07;24.80;92.30
13998;DHT22;7074;51.508;7.018;2023-07-20T11:11:37;24.50;90.90
13998;DHT22;7074;51.508;7.018;2023-07-20T11:14:06;24.70;90.90
13998;DHT22;7074;51.508;7.018;2023-07-20T11:16:41;24.50;90.00
13998;DHT22;7074;51.508;7.018;2023-07-20T11:19:18;24.20;90.50
13998;DHT22;7074;51.508;7.018;2023-07-20T11:21:50;24.50;90.50
13998;DHT22;7074;51.508;7.018;2023-07-20T11:24:18;24.60;87.20
13998;DHT22;7074;51.508;7.018;2023-07-20T11:26:48;24.80;88.10
13998;DHT22;7074;51.508;7.018;2023-07-20T11:29:16;25.10;85.30
13998;DHT22;7074;51.508;7.018;2023-07-20T11:31:45;24.90;80.90
13998;DHT22;7074;51.508;7.018;2023-07-20T11:34:13;25.10;78.50
13998;DHT22;7074;51.508;7.018;2023-07-20T11:36:44;25.20;77.30
13998;DHT22;7074;51.508;7.018;2023-07-20T11:39:13;25.10;78.90
13998;DHT22;7074;51.508;7.018;2023-07-20T11:41:46;24.80;78.30
13998;DHT22;7074;51.508;7.018;2023-07-20T11:44:13;24.30;78.20
13998;DHT22;7074;51.508;7.018;2023-07-20T11:46:41;24.40;81.00
13998;DHT22;7074;51.508;7.018;2023-07-20T11:49:10;24.40;84.40
13998;DHT22;7074;51.508;7.018;2023-07-20T11:51:38;24.20;82.70
13998;DHT22;7074;51.508;7.018;2023-07-20T11:54:08;24.50;82.10
13998;DHT22;7074;51.508;7.018;2023-07-20T11:56:35;25.00;80.60
13998;DHT22;7074;51.508;7.018;2023-07-20T11:59:03;25.10;80.30
13998;DHT22;7074;51.508;7.018;2023-07-20T12:01:30;24.90;80.70
13998;DHT22;7074;51.508;7.018;2023-07-20T12:04:00;24.80;81.00
13998;DHT22;7074;51.508;7.018;2023-07-20T12:06:29;24.90;78.90
13998;DHT22;7074;51.508;7.018;2023-07-20T12:08:57;24.80;78.40
13998;DHT22;7074;51.508;7.018;2023-07-20T12:11:33;24.70;77.50
13998;DHT22;7074;51.508;7.018;2023-07-20T12:14:01;24.80;80.20
13998;DHT22;7074;51.508;7.018;2023-07-20T12:16:29;24.90;79.70
13998;DHT22;7074;51.508;7.018;2023-07-20T12:19:01;24.50;78.60
13998;DHT22;7074;51.508;7.018;2023-07-20T12:21:28;25.00;76.60
13998;DHT22;7074;51.508;7.018;2023-07-20T12:23:56;25.40;76.30
13998;DHT22;7074;51.508;7.018;2023-07-20T12:26:25;25.60;74.00
13998;DHT22;7074;51.508;7.018;2023-07-20T12:28:54;25.80;78.50
13998;DHT22;7074;51.508;7.018;2023-07-20T12:31:23;26.20;75.20
13998;DHT22;7074;51.508;7.018;2023-07-20T12:33:51;26.40;68.00
13998;DHT22;7074;51.508;7.018;2023-07-20T12:36:17;26.20;71.20
13998;DHT22;7074;51.508;7.018;2023-07-20T12:38:45;26.60;70.20
13998;DHT22;7074;51.508;7.018;2023-07-20T12:41:13;26.70;67.20
13998;DHT22;7074;51.508;7.018;2023-07-20T12:43:40;26.60;64.20
13998;DHT22;7074;51.508;7.018;2023-07-20T12:46:10;26.60;65.30
13998;DHT22;7074;51.508;7.018;2023-07-20T12:48:38;26.50;66.90
13998;DHT22;7074;51.508;7.018;2023-07-20T12:51:07;26.10;65.90
13998;DHT22;7074;51.508;7.018;2023-07-20T12:53:35;26.60;69.60
13998;DHT22;7074;51.508;7.018;2023-07-20T12:56:02;26.90;69.60
13998;DHT22;7074;51.508;7.018;2023-07-20T12:58:30;27.00;66.10
13998;DHT22;7074;51.508;7.018;2023-07-20T13:00:57;27.00;66.00
13998;DHT22;7074;51.508;7.018;2023-07-20T13:03:26;26.80;65.20
13998;DHT22;7074;51.508;7.018;2023-07-20T13:05:53;26.50;65.50
13998;DHT22;7074;51.508;7.018;2023-07-20T13:08:21;26.50;66.60
13998;DHT22;7074;51.508;7.018;2023-07-20T13:10:51;26.40;65.50
13998;DHT22;7074;51.508;7.018;2023-07-20T13:13:18;26.30;63.40
13998;DHT22;7074;51.508;7.018;2023-07-20T13:15:46;26.70;67.50
13998;DHT22;7074;51.508;7.018;2023-07-20T13:18:13;27.00;63.50
13998;DHT22;7074;51.508;7.018;2023-07-20T13:20:42;27.30;63.40
13998;DHT22;7074;51.508;7.018;2023-07-20T13:23:09;27.30;60.80
13998;DHT22;7074;51.508;7.018;2023-07-20T13:25:37;27.60;59.40
13998;DHT22;7074;51.508;7.018;2023-07-20T13:28:05;27.80;59.30
13998;DHT22;7074;51.508;7.018;2023-07-20T13:30:32;27.90;58.10
13998;DHT22;7074;51.508;7.018;2023-07-20T13:32:59;27.80;59.10
13998;DHT22;7074;51.508;7.018;2023-07-20T13:35:27;27.50;58.80
13998;DHT22;7074;51.508;7.018;2023-07-20T13:37:56;27.20;58.90
13998;DHT22;7074;51.508;7.018;2023-07-20T13:40:23;26.90;59.80
13998;DHT22;7074;51.508;7.018;2023-07-20T13:42:50;26.70;60.70
13998;DHT22;7074;51.508;7.018;2023-07-20T13:45:18;26.40;61.80
13998;DHT22;7074;51.508;7.018;2023-07-20T13:47:46;26.30;62.30
13998;DHT22;7074;51.508;7.018;2023-07-20T13:50:19;26.20;61.70
13998;DHT22;7074;51.508;7.018;2023-07-20T13:53:10;26.60;61.10
13998;DHT22;7074;51.508;7.018;2023-07-20T13:55:39;26.20;59.80
13998;DHT22;7074;51.508;7.018;2023-07-20T13:58:08;25.90;60.70
13998;DHT22;7074;51.508;7.018;2023-07-20T14:00:39;26.20;61.80
13998;DHT22;7074;51.508;7.018;2023-07-20T14:03:07;26.70;62.40
13998;DHT22;7074;51.508;7.018;2023-07-20T14:05:35;26.80;60.80
13998;DHT22;7074;51.508;7.018;2023-07-20T14:08:04;26.80;61.20
13998;DHT22;7074;51.508;7.018;2023-07-20T14:10:32;26.80;62.10
13998;DHT22;7074;51.508;7.018;2023-07-20T14:13:00;26.60;62.10
13998;DHT22;7074;51.508;7.018;2023-07-20T14:15:27;26.60;60.80
13998;DHT22;7074;51.508;7.018;2023-07-20T14:17:55;26.50;59.10
13998;DHT22;7074;51.508;7.018;2023-07-20T14:36:14;26.50;58.70
13998;DHT22;7074;51.508;7.018;2023-07-20T14:38:41;26.40;61.30
13998;DHT22;7074;51.508;7.018;2023-07-20T14:41:09;26.40;60.80
13998;DHT22;7074;51.508;7.018;2023-07-20T14:43:37;26.30;60.10
13998;DHT22;7074;51.508;7.018;2023-07-20T14:46:05;26.30;60.20
13998;DHT22;7074;51.508;7.018;2023-07-20T14:48:32;26.20;59.40
13998;DHT22;7074;51.508;7.018;2023-07-20T14:50:59;26.30;60.10
13998;DHT22;7074;51.508;7.018;2023-07-20T14:53:27;26.30;60.50
13998;DHT22;7074;51.508;7.018;2023-07-20T14:55:59;26.50;61.20
13998;DHT22;7074;51.508;7.018;2023-07-20T14:58:26;26.70;60.00
13998;DHT22;7074;51.508;7.018;2023-07-20T15:00:55;27.00;58.00
13998;DHT22;7074;51.508;7.018;2023-07-20T15:03:23;27.10;56.70
13998;DHT22;7074;51.508;7.018;2023-07-20T15:05:50;27.20;57.80
13998;DHT22;7074;51.508;7.018;2023-07-20T15:08:18;27.40;57.40
13998;DHT22;7074;51.508;7.018;2023-07-20T15:10:46;27.50;58.00
13998;DHT22;7074;51.508;7.018;2023-07-20T15:13:13;27.00;57.60
13998;DHT22;7074;51.508;7.018;2023-07-20T15:15:40;26.80;56.70
13998;DHT22;7074;51.508;7.018;2023-07-20T15:18:10;26.80;57.20
13998;DHT22;7074;51.508;7.018;2023-07-20T15:20:37;26.80;57.80
13998;DHT22;7074;51.508;7.018;2023-07-20T15:23:05;26.90;58.70
13998;DHT22;7074;51.508;7.018;2023-07-20T15:25:36;26.90;58.50
13998;DHT22;7074;51.508;7.018;2023-07-20T15:28:04;26.90;58.80
13998;DHT22;7074;51.508;7.018;2023-07-20T15:30:31;26.80;58.80
13998;DHT22;7074;51.508;7.018;2023-07-20T15:32:58;26.70;58.70
13998;DHT22;7074;51.508;7.018;2023-07-20T15:35:27;26.60;59.00
13998;DHT22;7074;51.508;7.018;2023-07-20T15:37:54;26.70;59.40
13998;DHT22;7074;51.508;7.018;2023-07-20T15:40:21;26.70;58.10
13998;DHT22;7074;51.508;7.018;2023-07-20T15:42:49;26.90;58.50
13998;DHT22;7074;51.508;7.018;2023-07-20T15:45:16;27.20;57.20
13998;DHT22;7074;51.508;7.018;2023-07-20T15:47:43;27.40;57.10
13998;DHT22;7074;51.508;7.018;2023-07-20T15:50:11;27.30;58.00
13998;DHT22;7074;51.508;7.018;2023-07-20T15:52:40;27.40;57.90
13998;DHT22;7074;51.508;7.018;2023-07-20T15:55:08;27.30;58.80
13998;DHT22;7074;51.508;7.018;2023-07-20T15:57:35;27.20;58.90
13998;DHT22;7074;51.508;7.018;2023-07-20T16:00:03;26.90;58.00
13998;DHT22;7074;51.508;7.018;2023-07-20T16:02:37;26.90;57.30
13998;DHT22;7074;51.508;7.018;2023-07-20T16:05:05;27.20;57.40
13998;DHT22;7074;51.508;7.018;2023-07-20T16:07:32;27.50;57.80
13998;DHT22;7074;51.508;7.018;2023-07-20T16:10:01;27.30;56.40
13998;DHT22;7074;51.508;7.018;2023-07-20T16:12:29;26.70;57.50